Time;durP1;ratioP1;P1;durP2;ratioP2;P2;SDS_P1;SDS_P2;PMS_P1;PMS_P2;Temp;Humidity;BMP_temperature;BMP_pressure;BME280_temperature;BME280_humidity;BME280_pressure;Samples;Min_cycle;Max_cycle;Signal;HPM_P1;HPM_P2
2021/01/01 00:00:34;;;;;;;37.03;22.95;;;18.90;51.50;;;;;;5028928;28;20034;-61
2021/01/01 00:03:00;;;;;;;37.90;22.23;;;18.80;51.40;;;;;;5032025;28;20087;-61
2021/01/01 00:05:32;;;;;;;34.45;23.08;;;18.80;51.40;;;;;;5027297;28;20060;-61
2021/01/01 00:07:57;;;;;;;35.72;21.50;;;18.80;51.30;;;;;;5027089;28;20111;-61
2021/01/01 00:10:23;;;;;;;33.80;22.13;;;18.80;51.30;;;;;;5042816;28;20071;-63
2021/01/01 00:12:48;;;;;;;36.67;21.50;;;18.80;51.40;;;;;;5029779;28;20646;-62
2021/01/01 00:15:14;;;;;;;33.55;21.05;;;18.80;51.40;;;;;;5033195;28;20084;-63
2021/01/01 00:17:39;;;;;;;35.70;20.85;;;18.80;51.30;;;;;;5032337;28;20124;-62
2021/01/01 00:20:06;;;;;;;30.80;19.92;;;18.80;51.40;;;;;;5024326;28;20037;-63
2021/01/01 00:22:32;;;;;;;35.97;20.95;;;18.80;51.30;;;;;;5017764;28;20060;-63
2021/01/01 00:24:57;;;;;;;34.88;21.33;;;18.80;51.30;;;;;;5043831;28;20033;-63
2021/01/01 00:27:23;;;;;;;33.65;20.42;;;18.80;51.30;;;;;;5036251;28;20087;-63
2021/01/01 00:29:48;;;;;;;32.83;20.30;;;18.80;51.30;;;;;;5034213;28;20112;-63
2021/01/01 00:32:14;;;;;;;29.80;19.52;;;18.80;51.40;;;;;;5046517;28;20032;-64
2021/01/01 00:34:39;;;;;;;29.70;20.02;;;18.80;51.30;;;;;;5046379;28;20025;-63
2021/01/01 00:37:05;;;;;;;35.15;20.85;;;18.80;51.30;;;;;;5030226;28;20029;-63
2021/01/01 00:39:30;;;;;;;32.65;20.10;;;18.80;51.30;;;;;;5039584;28;20033;-63
2021/01/01 00:41:56;;;;;;;35.00;19.55;;;18.80;51.30;;;;;;5039551;28;20532;-61
2021/01/01 00:44:21;;;;;;;28.77;20.23;;;18.80;51.30;;;;;;5043914;28;20041;-61
2021/01/01 00:46:47;;;;;;;28.92;20.48;;;18.80;51.20;;;;;;5035333;28;20029;-64
2021/01/01 00:49:12;;;;;;;33.42;20.52;;;18.80;51.20;;;;;;5038749;28;20056;-62
2021/01/01 00:51:38;;;;;;;29.38;19.30;;;18.80;51.30;;;;;;5039132;28;20491;-61
2021/01/01 00:54:03;;;;;;;33.03;20.17;;;18.80;51.40;;;;;;5038917;28;20048;-61
2021/01/01 00:56:29;;;;;;;27.05;18.33;;;18.80;51.30;;;;;;5040356;28;20812;-61
2021/01/01 00:58:56;;;;;;;30.90;18.33;;;18.80;51.30;;;;;;5043682;28;20573;-63
2021/01/01 01:01:23;;;;;;;29.95;19.13;;;18.80;51.30;;;;;;5031763;28;20037;-63
2021/01/01 01:03:52;;;;;;;28.73;19.48;;;18.80;51.30;;;;;;5032924;28;20664;-63
2021/01/01 01:06:18;;;;;;;29.42;19.65;;;18.80;51.30;;;;;;5018281;28;20036;-63
2021/01/01 01:08:43;;;;;;;28.92;18.92;;;18.80;51.30;;;;;;5032252;28;20029;-61
2021/01/01 01:11:10;;;;;;;31.25;18.58;;;18.80;51.30;;;;;;5046367;28;20544;-61
2021/01/01 01:13:35;;;;;;;27.38;18.77;;;18.80;51.30;;;;;;5043571;28;20116;-61
2021/01/01 01:16:01;;;;;;;30.83;19.30;;;18.80;51.30;;;;;;5038120;28;20479;-61
2021/01/01 01:18:26;;;;;;;32.20;20.20;;;18.80;51.40;;;;;;5035815;28;20029;-63
2021/01/01 01:20:52;;;;;;;25.70;18.75;;;18.70;51.30;;;;;;5027603;28;20025;-63
2021/01/01 01:23:19;;;;;;;29.20;18.05;;;18.80;51.50;;;;;;5041857;28;20048;-61
2021/01/01 01:25:44;;;;;;;25.35;18.20;;;18.80;51.40;;;;;;5032678;28;20028;-63
2021/01/01 01:28:10;;;;;;;24.33;18.75;;;18.70;51.40;;;;;;5030031;28;20041;-63
2021/01/01 01:30:35;;;;;;;25.33;17.95;;;18.70;51.40;;;;;;5040462;28;20025;-64
2021/01/01 01:33:01;;;;;;;25.80;17.75;;;18.70;51.40;;;;;;5041573;28;20044;-63
2021/01/01 01:35:26;;;;;;;29.67;18.60;;;18.70;51.40;;;;;;5030203;28;20116;-63
2021/01/01 01:37:52;;;;;;;27.90;19.02;;;18.80;51.40;;;;;;5046414;28;20124;-63
2021/01/01 01:40:17;;;;;;;25.63;18.10;;;18.70;51.40;;;;;;5026332;28;20710;-63
2021/01/01 01:42:43;;;;;;;26.23;17.85;;;18.70;51.40;;;;;;5034376;28;20040;-63
2021/01/01 01:45:08;;;;;;;23.92;17.92;;;18.80;51.50;;;;;;5035648;28;20029;-63
2021/01/01 01:47:34;;;;;;;25.30;18.58;;;18.70;51.40;;;;;;5057287;28;20030;-63
2021/01/01 01:50:00;;;;;;;24.15;17.88;;;18.80;51.40;;;;;;5025500;28;20037;-63
2021/01/01 01:52:26;;;;;;;27.10;17.88;;;18.70;51.40;;;;;;5025929;28;20033;-63
2021/01/01 01:54:55;;;;;;;25.52;17.75;;;18.70;51.40;;;;;;5037761;28;20036;-64
2021/01/01 01:57:22;;;;;;;24.35;17.70;;;18.70;51.40;;;;;;5034435;28;20489;-62
2021/01/01 01:59:47;;;;;;;27.08;18.13;;;18.70;51.40;;;;;;5040954;28;20064;-63
2021/01/01 02:02:13;;;;;;;23.40;17.02;;;18.70;51.40;;;;;;5033307;28;20064;-63
2021/01/01 02:04:39;;;;;;;21.25;18.23;;;18.70;51.30;;;;;;5027201;28;20522;-63
2021/01/01 02:07:04;;;;;;;22.85;17.23;;;18.70;51.40;;;;;;5040802;28;20094;-63
2021/01/01 02:09:30;;;;;;;26.95;18.52;;;18.70;51.40;;;;;;5035852;28;20037;-63
2021/01/01 02:11:55;;;;;;;25.10;17.40;;;18.70;51.40;;;;;;5036075;28;20055;-63
2021/01/01 02:14:21;;;;;;;25.10;17.63;;;18.70;51.40;;;;;;5040859;28;20322;-62
2021/01/01 02:16:46;;;;;;;26.88;16.88;;;18.70;51.40;;;;;;5040052;28;20041;-62
2021/01/01 02:19:13;;;;;;;21.58;16.58;;;18.70;51.40;;;;;;5010892;28;20575;-61
2021/01/01 02:21:42;;;;;;;23.65;17.52;;;18.70;51.50;;;;;;5038667;28;20132;-60
2021/01/01 02:24:10;;;;;;;22.48;16.70;;;18.70;51.50;;;;;;5043684;28;20064;-60
2021/01/01 02:26:36;;;;;;;21.73;16.92;;;18.60;51.40;;;;;;5042219;28;20072;-63
2021/01/01 02:29:02;;;;;;;22.23;17.67;;;18.60;51.50;;;;;;5040815;28;20408;-62
2021/01/01 02:31:28;;;;;;;21.38;16.15;;;18.60;51.50;;;;;;5037508;28;20037;-63
2021/01/01 02:33:53;;;;;;;22.60;17.27;;;18.60;51.50;;;;;;5031134;28;20038;-62
2021/01/01 02:36:19;;;;;;;21.65;16.77;;;18.60;51.50;;;;;;5035620;28;20095;-60
2021/01/01 02:38:46;;;;;;;23.40;15.75;;;18.60;51.50;;;;;;5037646;28;20500;-61
2021/01/01 02:41:11;;;;;;;22.48;16.40;;;18.60;51.50;;;;;;5043631;28;20034;-63
2021/01/01 02:43:37;;;;;;;23.70;16.08;;;18.60;51.40;;;;;;5025555;28;20040;-62
2021/01/01 02:46:02;;;;;;;20.20;15.00;;;18.60;51.50;;;;;;5032972;28;20045;-61
2021/01/01 02:48:28;;;;;;;20.70;15.40;;;18.60;51.50;;;;;;5025183;28;20404;-61
2021/01/01 02:50:53;;;;;;;19.95;15.38;;;18.60;51.50;;;;;;5024219;28;20029;-62
2021/01/01 02:53:19;;;;;;;20.95;16.02;;;18.60;51.50;;;;;;5024955;28;20102;-61
2021/01/01 02:55:44;;;;;;;21.17;15.75;;;18.60;51.50;;;;;;5017014;28;20413;-63
2021/01/01 02:58:10;;;;;;;20.02;15.73;;;18.60;51.60;;;;;;5033399;28;20030;-59
2021/01/01 03:00:37;;;;;;;20.67;15.77;;;18.60;51.60;;;;;;5037289;28;20060;-63
2021/01/01 03:03:02;;;;;;;23.45;16.30;;;18.60;51.60;;;;;;5036191;28;20033;-63
2021/01/01 03:05:28;;;;;;;21.00;15.55;;;18.60;51.60;;;;;;5032554;28;20036;-63
2021/01/01 03:07:53;;;;;;;20.73;16.15;;;18.60;51.60;;;;;;5029690;28;20033;-63
2021/01/01 03:10:19;;;;;;;22.98;17.35;;;18.60;51.60;;;;;;5028397;28;20056;-64
2021/01/01 03:12:45;;;;;;;25.75;17.25;;;18.60;51.60;;;;;;5032528;28;20025;-64
2021/01/01 03:15:11;;;;;;;21.55;15.95;;;18.60;51.80;;;;;;5030280;28;20044;-64
2021/01/01 03:17:36;;;;;;;25.25;17.20;;;18.60;51.90;;;;;;5039237;28;20620;-64
2021/01/01 03:20:03;;;;;;;24.70;17.65;;;18.60;52.00;;;;;;5024965;28;20103;-62
2021/01/01 03:22:29;;;;;;;20.33;15.10;;;18.60;52.00;;;;;;5042494;28;20037;-64
2021/01/01 03:24:54;;;;;;;28.90;16.95;;;18.70;52.10;;;;;;5030703;28;20038;-62
2021/01/01 03:27:20;;;;;;;21.50;16.35;;;18.70;52.20;;;;;;5025027;28;20035;-61
2021/01/01 03:29:45;;;;;;;24.45;16.95;;;18.70;52.30;;;;;;5025215;28;20488;-64
2021/01/01 03:32:11;;;;;;;20.92;15.80;;;18.70;52.30;;;;;;5025410;28;20771;-62
2021/01/01 03:34:36;;;;;;;24.15;15.55;;;18.70;52.30;;;;;;5024987;28;20025;-63
2021/01/01 03:37:02;;;;;;;22.50;15.38;;;18.70;52.40;;;;;;5024991;28;20037;-63
2021/01/01 03:39:27;;;;;;;26.77;15.88;;;18.70;52.40;;;;;;5023344;28;20049;-63
2021/01/01 03:41:53;;;;;;;21.23;14.52;;;18.70;52.30;;;;;;5023478;28;20053;-64
2021/01/01 03:44:18;;;;;;;19.65;14.43;;;18.70;52.30;;;;;;5024518;28;20183;-64
2021/01/01 03:46:44;;;;;;;19.95;15.32;;;18.70;52.40;;;;;;5024301;28;20459;-64
2021/01/01 03:49:09;;;;;;;22.60;14.75;;;18.70;52.40;;;;;;5024847;28;20040;-64
2021/01/01 03:51:35;;;;;;;20.15;14.70;;;18.70;52.30;;;;;;5023924;28;20029;-64
2021/01/01 03:54:00;;;;;;;17.70;13.93;;;18.70;52.30;;;;;;5024636;28;20060;-64
2021/01/01 03:56:26;;;;;;;20.00;14.48;;;18.70;52.30;;;;;;5024756;28;20041;-64
2021/01/01 03:58:51;;;;;;;18.98;13.70;;;18.70;52.30;;;;;;5028478;28;20136;-62
2021/01/01 04:01:17;;;;;;;17.65;13.75;;;18.70;52.20;;;;;;5028522;28;20409;-62
2021/01/01 04:03:42;;;;;;;16.17;13.13;;;18.70;52.30;;;;;;5028638;28;20153;-62
2021/01/01 04:06:08;;;;;;;19.70;13.48;;;18.70;52.20;;;;;;5028248;28;20038;-62
2021/01/01 04:08:33;;;;;;;15.88;12.25;;;18.70;52.20;;;;;;5028775;28;20100;-61
2021/01/01 04:10:59;;;;;;;17.25;12.85;;;18.70;52.20;;;;;;5028274;28;21081;-62
2021/01/01 04:13:24;;;;;;;18.98;13.02;;;18.70;52.10;;;;;;5028225;28;20033;-62
2021/01/01 04:15:50;;;;;;;18.35;13.07;;;18.70;52.10;;;;;;5028762;28;20025;-62
2021/01/01 04:18:16;;;;;;;17.98;12.18;;;18.70;52.10;;;;;;5028680;28;20520;-61
2021/01/01 04:20:42;;;;;;;18.15;12.35;;;18.70;52.10;;;;;;5028592;28;20060;-62
2021/01/01 04:23:07;;;;;;;17.67;11.98;;;18.70;52.10;;;;;;5027876;28;20437;-62
2021/01/01 04:25:33;;;;;;;18.13;12.23;;;18.70;52.10;;;;;;5028896;28;20075;-61
2021/01/01 04:27:58;;;;;;;16.08;11.43;;;18.70;52.10;;;;;;5028150;28;20424;-62
2021/01/01 04:30:24;;;;;;;14.38;11.20;;;18.70;52.10;;;;;;5028261;28;20484;-62
2021/01/01 04:32:49;;;;;;;13.73;10.35;;;18.70;52.10;;;;;;5028295;28;20025;-62
2021/01/01 04:35:15;;;;;;;15.85;10.93;;;18.70;52.10;;;;;;5031062;28;20129;-62
2021/01/01 04:37:40;;;;;;;14.85;11.60;;;18.70;52.10;;;;;;5031744;28;20040;-62
2021/01/01 04:40:06;;;;;;;12.43;11.13;;;18.70;52.00;;;;;;5038908;28;20033;-62
2021/01/01 04:42:32;;;;;;;14.30;11.60;;;18.70;52.10;;;;;;5043333;28;20030;-62
2021/01/01 04:44:57;;;;;;;14.98;10.98;;;18.70;52.00;;;;;;5035748;28;20036;-61
2021/01/01 04:47:23;;;;;;;14.85;11.07;;;18.70;52.00;;;;;;5019645;28;20034;-62
2021/01/01 04:49:50;;;;;;;15.68;11.30;;;18.70;52.00;;;;;;5013699;28;20041;-62
2021/01/01 04:52:16;;;;;;;14.77;10.18;;;18.70;52.00;;;;;;5008902;28;20025;-62
2021/01/01 04:54:41;;;;;;;13.40;10.98;;;18.70;52.00;;;;;;5008202;28;20109;-62
2021/01/01 04:57:07;;;;;;;13.65;10.40;;;18.70;52.00;;;;;;5007217;28;20477;-61
2021/01/01 04:59:32;;;;;;;16.83;9.98;;;18.70;52.00;;;;;;5006265;28;20034;-62
2021/01/01 05:01:58;;;;;;;12.48;9.20;;;18.60;52.00;;;;;;5007392;28;20030;-62
2021/01/01 05:04:23;;;;;;;12.40;9.85;;;18.60;52.00;;;;;;5007538;28;20065;-62
2021/01/01 05:06:49;;;;;;;14.23;10.27;;;18.60;52.00;;;;;;5008218;28;20512;-64
2021/01/01 05:09:14;;;;;;;14.90;9.50;;;18.60;52.00;;;;;;5006272;28;20049;-64
2021/01/01 05:11:40;;;;;;;12.18;9.13;;;18.60;52.00;;;;;;5007103;28;20034;-64
2021/01/01 05:14:06;;;;;;;12.57;9.15;;;18.60;52.00;;;;;;5006322;28;20463;-63
2021/01/01 05:16:32;;;;;;;11.38;9.00;;;18.60;52.00;;;;;;5007777;28;20038;-63
2021/01/01 05:18:58;;;;;;;12.95;9.52;;;18.60;52.00;;;;;;5007926;28;20037;-63
2021/01/01 05:21:25;;;;;;;13.63;9.98;;;18.60;52.30;;;;;;5014798;28;20032;-64
2021/01/01 05:23:51;;;;;;;11.35;8.82;;;18.60;52.00;;;;;;5026988;28;20037;-64
2021/01/01 05:26:17;;;;;;;11.60;8.73;;;18.60;52.00;;;;;;5026750;28;20045;-64
2021/01/01 05:28:48;;;;;;;11.32;8.90;;;18.60;52.00;;;;;;5027087;28;20475;-63
2021/01/01 05:31:21;;;;;;;10.10;8.57;;;18.60;52.00;;;;;;5027138;28;20057;-63
2021/01/01 05:34:00;;;;;;;11.30;8.65;;;18.60;52.00;;;;;;5026474;28;20037;-63
2021/01/01 05:36:31;;;;;;;12.52;8.57;;;18.60;51.90;;;;;;5027079;28;20041;-64
2021/01/01 05:38:56;;;;;;;11.80;8.52;;;18.60;52.00;;;;;;5027331;28;20436;-63
2021/01/01 05:41:34;;;;;;;12.93;8.40;;;18.60;52.00;;;;;;5025356;28;20034;-63
2021/01/01 05:44:07;;;;;;;10.75;7.55;;;18.60;52.00;;;;;;5027019;28;20044;-64
2021/01/01 05:46:33;;;;;;;8.73;7.55;;;18.60;52.00;;;;;;5026650;28;20030;-64
2021/01/01 05:48:59;;;;;;;11.73;8.27;;;18.60;52.00;;;;;;5026506;28;20026;-64
2021/01/01 05:51:25;;;;;;;10.77;7.78;;;18.60;52.00;;;;;;5025113;28;20025;-64
2021/01/01 05:53:50;;;;;;;9.27;7.90;;;18.60;52.00;;;;;;5027358;28;20162;-63
2021/01/01 05:56:16;;;;;;;8.82;6.93;;;18.60;51.90;;;;;;5027243;28;20037;-64
2021/01/01 05:58:41;;;;;;;9.93;7.78;;;18.60;51.90;;;;;;5028642;28;20028;-64
2021/01/01 06:01:07;;;;;;;9.48;7.07;;;18.60;51.90;;;;;;5026361;28;20885;-64
2021/01/01 06:03:33;;;;;;;9.90;7.63;;;18.60;52.00;;;;;;5025106;28;20034;-62
2021/01/01 06:05:59;;;;;;;8.95;7.20;;;18.60;51.90;;;;;;5024876;28;20026;-64
2021/01/01 06:08:27;;;;;;;10.20;7.20;;;18.60;51.90;;;;;;5026203;28;20041;-64
2021/01/01 06:10:53;;;;;;;11.45;7.47;;;18.60;51.90;;;;;;5024328;28;20617;-63
2021/01/01 06:13:20;;;;;;;8.23;6.95;;;18.60;51.90;;;;;;5026318;28;20558;-63
2021/01/01 06:15:55;;;;;;;9.55;7.50;;;18.60;51.90;;;;;;5026701;28;20033;-63
2021/01/01 06:18:25;;;;;;;7.57;6.10;;;18.60;51.90;;;;;;5025086;28;20042;-63
2021/01/01 06:20:56;;;;;;;8.38;6.90;;;18.60;51.90;;;;;;5025628;28;20022;-63
2021/01/01 06:23:28;;;;;;;8.45;7.00;;;18.50;51.90;;;;;;5026365;28;20033;-60
2021/01/01 06:25:53;;;;;;;7.78;6.00;;;18.60;51.90;;;;;;5025034;28;20029;-61
2021/01/01 06:28:19;;;;;;;8.32;5.97;;;18.50;51.90;;;;;;5024806;28;20024;-62
2021/01/01 06:30:44;;;;;;;9.07;6.03;;;18.50;51.90;;;;;;5025099;28;20026;-60
2021/01/01 06:33:10;;;;;;;8.10;6.22;;;18.50;51.90;;;;;;5024316;28;20048;-62
2021/01/01 06:35:41;;;;;;;9.18;6.40;;;18.50;51.90;;;;;;5024386;28;20022;-62
2021/01/01 06:38:07;;;;;;;6.90;5.93;;;18.60;51.90;;;;;;5024453;28;20033;-63
2021/01/01 06:40:33;;;;;;;8.73;6.57;;;18.50;51.90;;;;;;5024205;28;20032;-62
2021/01/01 06:42:59;;;;;;;7.35;5.88;;;18.50;51.90;;;;;;5025367;28;20029;-62
2021/01/01 06:45:46;;;;;;;7.53;5.70;;;18.50;51.80;;;;;;5025797;28;20404;-62
2021/01/01 06:48:12;;;;;;;6.78;5.63;;;18.50;51.80;;;;;;5026033;28;20025;-62
2021/01/01 06:50:40;;;;;;;6.50;5.65;;;18.60;51.90;;;;;;5024595;28;20136;-62
2021/01/01 06:53:06;;;;;;;7.68;5.80;;;18.60;51.80;;;;;;5025445;28;20135;-62
2021/01/01 06:55:39;;;;;;;6.53;5.50;;;18.60;51.90;;;;;;5025413;28;20112;-62
2021/01/01 06:58:04;;;;;;;5.93;5.32;;;18.60;51.90;;;;;;5025487;28;20048;-62
2021/01/01 07:00:45;;;;;;;6.35;5.30;;;18.60;51.90;;;;;;5024405;28;20025;-62
2021/01/01 07:03:32;;;;;;;7.85;5.35;;;18.60;51.80;;;;;;5025096;28;20054;-62
2021/01/01 07:06:18;;;;;;;6.75;5.35;;;18.60;51.80;;;;;;5025553;28;20022;-63
2021/01/01 07:08:46;;;;;;;5.55;5.03;;;18.60;51.80;;;;;;5011180;28;20496;-63
2021/01/01 07:11:23;;;;;;;5.80;4.68;;;18.60;51.80;;;;;;5025156;28;20029;-64
2021/01/01 07:13:50;;;;;;;6.80;4.88;;;18.60;51.80;;;;;;5025115;28;20416;-62
2021/01/01 07:16:25;;;;;;;7.38;5.43;;;18.60;51.80;;;;;;5025344;28;20123;-63
2021/01/01 07:18:52;;;;;;;5.82;4.85;;;18.60;51.80;;;;;;5023988;28;21796;-63
2021/01/01 07:21:18;;;;;;;5.57;4.60;;;18.60;51.80;;;;;;5025825;28;20040;-63
2021/01/01 07:23:43;;;;;;;5.13;4.35;;;18.60;51.80;;;;;;5025134;28;20030;-64
2021/01/01 07:26:09;;;;;;;6.60;4.68;;;18.60;51.80;;;;;;5023427;28;20036;-61
2021/01/01 07:28:37;;;;;;;5.45;4.70;;;18.70;51.80;;;;;;5024853;28;20028;-62
2021/01/01 07:31:02;;;;;;;5.32;4.35;;;18.60;51.70;;;;;;5024637;28;20082;-62
2021/01/01 07:33:31;;;;;;;5.20;4.60;;;18.60;51.70;;;;;;5024823;28;20664;-63
2021/01/01 07:35:59;;;;;;;5.80;4.32;;;18.70;51.70;;;;;;5024723;28;20037;-63
2021/01/01 07:38:25;;;;;;;5.82;4.65;;;18.70;51.70;;;;;;5024870;28;20049;-63
2021/01/01 07:40:51;;;;;;;5.82;4.70;;;18.70;51.80;;;;;;5025117;28;20037;-63
2021/01/01 07:43:17;;;;;;;5.65;4.55;;;18.60;51.70;;;;;;5024683;28;20026;-62
2021/01/01 07:45:42;;;;;;;4.50;4.03;;;18.70;51.80;;;;;;5024560;28;20026;-63
2021/01/01 07:48:08;;;;;;;4.63;3.55;;;18.60;51.70;;;;;;5024643;28;20034;-63
2021/01/01 07:50:34;;;;;;;5.53;4.30;;;18.70;51.70;;;;;;5024606;28;20440;-63
2021/01/01 07:53:12;;;;;;;3.70;3.20;;;18.70;51.70;;;;;;5024496;28;20519;-62
2021/01/01 07:55:39;;;;;;;5.05;4.13;;;18.70;51.70;;;;;;5024489;28;20408;-63
2021/01/01 07:58:05;;;;;;;5.57;4.00;;;18.60;51.70;;;;;;5024439;28;20049;-62
2021/01/01 08:00:34;;;;;;;4.65;3.92;;;18.70;52.40;;;;;;5023240;28;20033;-62
2021/01/01 08:03:00;;;;;;;4.55;3.97;;;18.70;51.80;;;;;;5022555;28;20046;-63
2021/01/01 08:05:26;;;;;;;5.88;4.10;;;18.70;51.70;;;;;;5023462;28;20489;-62
2021/01/01 08:07:51;;;;;;;4.22;3.80;;;18.70;51.80;;;;;;5025179;28;20049;-64
2021/01/01 08:10:30;;;;;;;4.55;3.65;;;18.70;51.80;;;;;;5024925;28;20030;-63
2021/01/01 08:12:56;;;;;;;3.70;3.17;;;18.70;51.70;;;;;;5024374;28;20504;-62
2021/01/01 08:15:30;;;;;;;4.35;3.95;;;18.70;51.80;;;;;;5024623;28;20043;-62
2021/01/01 08:17:56;;;;;;;4.87;3.40;;;18.70;51.80;;;;;;5024443;28;21367;-62
2021/01/01 08:20:22;;;;;;;4.22;3.15;;;18.70;51.70;;;;;;5024602;28;21517;-62
2021/01/01 08:22:50;;;;;;;3.63;3.10;;;18.70;51.80;;;;;;5023627;28;20079;-62
2021/01/01 08:25:16;;;;;;;4.68;3.75;;;18.70;51.70;;;;;;5023129;28;20634;-62
2021/01/01 08:27:42;;;;;;;3.72;3.10;;;18.70;51.70;;;;;;5023687;28;20037;-62
2021/01/01 08:30:08;;;;;;;3.78;3.33;;;18.70;51.70;;;;;;5023422;28;20029;-62
2021/01/01 08:32:34;;;;;;;5.13;3.30;;;18.70;51.70;;;;;;5006586;28;20036;-63
2021/01/01 08:34:59;;;;;;;4.25;3.22;;;18.70;51.70;;;;;;5024604;28;20038;-63
2021/01/01 08:37:25;;;;;;;4.43;3.17;;;18.70;51.70;;;;;;5021946;28;20026;-64
2021/01/01 08:40:02;;;;;;;3.10;2.70;;;18.70;51.70;;;;;;5022395;28;20160;-63
2021/01/01 08:42:33;;;;;;;3.28;2.75;;;18.70;51.60;;;;;;5024289;28;20037;-63
2021/01/01 08:44:58;;;;;;;4.47;2.92;;;18.70;51.60;;;;;;5026261;28;20030;-63
2021/01/01 08:47:46;;;;;;;3.97;2.95;;;18.70;51.60;;;;;;5025874;28;20037;-63
2021/01/01 08:50:24;;;;;;;4.43;3.00;;;18.70;51.70;;;;;;5026697;28;20199;-63
2021/01/01 08:52:56;;;;;;;3.60;2.80;;;18.70;51.80;;;;;;5027885;28;20086;-64
2021/01/01 08:55:21;;;;;;;3.53;3.00;;;18.70;51.80;;;;;;5027942;28;20037;-64
2021/01/01 08:57:47;;;;;;;3.78;3.17;;;18.70;51.80;;;;;;5028147;28;20083;-64
2021/01/01 09:00:13;;;;;;;5.35;2.78;;;18.70;51.80;;;;;;5028923;28;20408;-63
2021/01/01 09:02:38;;;;;;;3.50;2.97;;;18.70;51.80;;;;;;5029166;28;20029;-63
2021/01/01 09:05:05;;;;;;;5.68;3.08;;;18.70;51.90;;;;;;5026219;28;20036;-61
2021/01/01 09:07:31;;;;;;;5.47;2.83;;;18.70;51.90;;;;;;5026389;28;20072;-64
2021/01/01 09:09:56;;;;;;;4.07;2.85;;;18.70;51.90;;;;;;5027884;28;20532;-62
2021/01/01 09:12:22;;;;;;;3.80;2.80;;;18.70;51.90;;;;;;5026584;28;20072;-62
2021/01/01 09:14:49;;;;;;;5.65;3.63;;;18.70;52.00;;;;;;5026941;28;20104;-62
2021/01/01 09:17:15;;;;;;;8.45;3.08;;;18.70;52.00;;;;;;5027217;28;20037;-63
2021/01/01 09:19:41;;;;;;;4.32;3.00;;;18.70;52.00;;;;;;5009322;28;20033;-63
2021/01/01 09:22:17;;;;;;;7.00;2.78;;;18.70;52.00;;;;;;5026734;28;20076;-62
2021/01/01 09:24:44;;;;;;;5.47;2.75;;;18.70;52.00;;;;;;5027087;28;20029;-63
2021/01/01 09:27:09;;;;;;;3.45;2.85;;;18.70;52.10;;;;;;5026208;28;20113;-62
2021/01/01 09:29:35;;;;;;;5.57;3.38;;;18.70;52.10;;;;;;5028015;28;20112;-62
2021/01/01 09:32:00;;;;;;;11.55;4.90;;;18.70;52.10;;;;;;5028067;28;20492;-62
2021/01/01 09:34:26;;;;;;;9.80;5.80;;;18.60;52.10;;;;;;5027100;28;20026;-62
2021/01/01 09:36:51;;;;;;;11.93;6.38;;;18.60;52.10;;;;;;5027148;28;20037;-62
2021/01/01 09:39:17;;;;;;;15.00;8.50;;;18.60;52.10;;;;;;5025374;28;20777;-62
2021/01/01 09:41:48;;;;;;;18.58;8.55;;;18.60;52.10;;;;;;5026393;28;20455;-63
2021/01/01 09:44:14;;;;;;;23.55;8.63;;;18.60;52.20;;;;;;5026360;28;20043;-63
2021/01/01 09:46:43;;;;;;;14.95;8.18;;;18.60;52.20;;;;;;5025105;28;20029;-61
2021/01/01 09:49:09;;;;;;;21.60;9.07;;;18.60;52.10;;;;;;5026518;28;20569;-60
2021/01/01 09:51:34;;;;;;;18.70;8.38;;;18.60;52.10;;;;;;5026549;28;20029;-61
2021/01/01 09:54:00;;;;;;;19.35;8.60;;;18.60;52.00;;;;;;5025781;28;20519;-62
2021/01/01 09:56:35;;;;;;;15.98;8.32;;;18.60;51.90;;;;;;5021735;28;20034;-58
2021/01/01 09:59:00;;;;;;;21.33;9.63;;;18.60;52.00;;;;;;5026428;28;20034;-61
2021/01/01 10:01:29;;;;;;;18.10;8.60;;;18.60;51.80;;;;;;5024504;28;20025;-62
2021/01/01 10:03:55;;;;;;;21.40;9.80;;;18.60;51.90;;;;;;5024736;28;20516;-62
2021/01/01 10:06:20;;;;;;;24.15;8.98;;;18.60;51.90;;;;;;5025793;28;20112;-62
2021/01/01 10:08:45;;;;;;;21.35;8.52;;;18.60;51.90;;;;;;5026439;28;20025;-62
2021/01/01 10:11:12;;;;;;;19.83;8.50;;;18.60;52.00;;;;;;5026044;28;20030;-63
2021/01/01 10:13:38;;;;;;;23.05;9.18;;;18.60;52.20;;;;;;5026098;28;20021;-63
2021/01/01 10:16:06;;;;;;;20.55;8.77;;;18.50;52.20;;;;;;5026566;28;20025;-63
2021/01/01 10:18:31;;;;;;;25.27;8.85;;;18.50;52.20;;;;;;5026184;28;20033;-62
2021/01/01 10:20:57;;;;;;;18.63;8.98;;;18.50;52.30;;;;;;5025525;28;20036;-64
2021/01/01 10:23:23;;;;;;;18.45;8.43;;;18.50;52.30;;;;;;5025989;28;20084;-64
2021/01/01 10:25:49;;;;;;;19.98;9.15;;;18.50;52.30;;;;;;5024864;28;20029;-63
2021/01/01 10:28:15;;;;;;;16.55;8.32;;;18.50;52.30;;;;;;5026714;28;20164;-62
2021/01/01 10:30:42;;;;;;;21.13;8.75;;;18.50;52.30;;;;;;5026738;28;20028;-63
2021/01/01 10:33:07;;;;;;;15.15;7.32;;;18.40;52.30;;;;;;5025974;28;20021;-62
2021/01/01 10:35:33;;;;;;;16.83;8.10;;;18.40;52.30;;;;;;5025589;28;20413;-63
2021/01/01 10:37:58;;;;;;;16.35;7.43;;;18.40;52.20;;;;;;5025625;28;20072;-62
2021/01/01 10:40:24;;;;;;;18.73;7.50;;;18.40;52.20;;;;;;5025197;28;20497;-63
2021/01/01 10:42:49;;;;;;;12.77;7.68;;;18.50;52.30;;;;;;5025424;28;20033;-63
2021/01/01 10:45:15;;;;;;;15.15;7.10;;;18.40;52.20;;;;;;5026637;28;20040;-62
2021/01/01 10:47:40;;;;;;;18.52;8.80;;;18.50;52.30;;;;;;5025295;28;20693;-65
2021/01/01 10:50:07;;;;;;;19.55;9.90;;;18.50;52.30;;;;;;5026207;28;20526;-64
2021/01/01 10:52:33;;;;;;;19.25;9.75;;;18.50;52.40;;;;;;5023826;28;20045;-64
2021/01/01 10:54:58;;;;;;;22.48;9.45;;;18.40;52.40;;;;;;5025513;28;20053;-63
2021/01/01 10:57:24;;;;;;;20.00;10.63;;;18.40;53.10;;;;;;5025499;28;20021;-63
2021/01/01 10:59:49;;;;;;;22.42;9.40;;;18.50;52.50;;;;;;5025129;28;20076;-64
2021/01/01 11:02:15;;;;;;;24.40;10.15;;;18.40;52.50;;;;;;5024968;28;20033;-64
2021/01/01 11:04:41;;;;;;;23.60;9.02;;;18.50;52.50;;;;;;5025664;28;20030;-63
2021/01/01 11:07:07;;;;;;;18.85;9.00;;;18.50;52.50;;;;;;5024198;28;20404;-63
2021/01/01 11:09:32;;;;;;;20.80;9.32;;;18.50;52.50;;;;;;5024358;28;20029;-64
2021/01/01 11:11:58;;;;;;;20.20;9.20;;;18.50;52.40;;;;;;5013243;28;20041;-64
2021/01/01 11:14:40;;;;;;;16.70;8.75;;;18.50;52.40;;;;;;5021179;28;20034;-63
2021/01/01 12:23:39;;;;;;;10.55;6.78;;;18.40;52.00;;;;;;5008304;28;20392;-63
2021/01/01 12:25:43;;;;;;;14.30;7.05;;;18.50;52.10;;;;;;5000543;28;20130;-63
2021/01/01 12:28:08;;;;;;;12.98;6.60;;;18.40;52.00;;;;;;5008349;28;20026;-63
2021/01/01 12:30:34;;;;;;;14.80;6.97;;;18.40;52.00;;;;;;5008472;28;20053;-63
2021/01/01 12:33:00;;;;;;;10.82;7.13;;;18.40;52.00;;;;;;5036153;28;20038;-64
2021/01/01 12:35:25;;;;;;;11.90;6.35;;;18.50;52.10;;;;;;5011586;28;20105;-63
2021/01/01 12:37:58;;;;;;;9.15;6.20;;;18.40;52.00;;;;;;5029018;28;20040;-62
2021/01/01 12:40:24;;;;;;;11.38;6.03;;;18.50;52.00;;;;;;5028907;28;20033;-63
2021/01/01 12:42:49;;;;;;;11.30;5.75;;;18.40;52.00;;;;;;5027833;28;20044;-63
2021/01/01 12:45:15;;;;;;;11.82;6.43;;;18.40;51.90;;;;;;5027361;28;20380;-63
2021/01/01 12:47:40;;;;;;;11.85;5.65;;;18.50;52.00;;;;;;5027687;28;20113;-63
2021/01/01 12:50:06;;;;;;;12.57;6.55;;;18.50;52.00;;;;;;5026815;28;20026;-63
2021/01/01 12:52:32;;;;;;;10.88;5.55;;;18.50;52.00;;;;;;5027631;28;20156;-60
2021/01/01 12:54:57;;;;;;;11.90;5.38;;;18.50;52.00;;;;;;5027747;28;20020;-63
2021/01/01 12:57:23;;;;;;;9.85;5.82;;;18.50;52.00;;;;;;5027963;28;20036;-64
2021/01/01 12:59:48;;;;;;;9.35;6.25;;;18.40;51.90;;;;;;5027952;28;20021;-64
2021/01/01 13:02:14;;;;;;;9.55;5.65;;;18.50;52.00;;;;;;5027160;28;20686;-65
2021/01/01 13:04:39;;;;;;;10.60;6.00;;;18.50;51.90;;;;;;5027802;28;20392;-64
2021/01/01 13:07:05;;;;;;;11.23;5.78;;;18.50;52.00;;;;;;5028664;28;20041;-65
2021/01/01 13:09:30;;;;;;;11.13;5.30;;;18.50;52.00;;;;;;5028165;28;20152;-65
2021/01/01 13:11:56;;;;;;;11.20;5.18;;;18.50;52.60;;;;;;5027216;28;20036;-65
2021/01/01 13:14:21;;;;;;;10.02;5.13;;;18.50;52.00;;;;;;5027703;28;20029;-65
2021/01/01 13:16:47;;;;;;;10.88;5.32;;;18.50;52.10;;;;;;5026632;28;20440;-63
2021/01/01 13:19:12;;;;;;;9.45;5.10;;;18.50;52.10;;;;;;5027195;28;20116;-64
2021/01/01 13:21:39;;;;;;;7.70;4.70;;;18.40;52.10;;;;;;5027092;28;20187;-62
2021/01/01 13:24:05;;;;;;;6.55;4.68;;;18.50;52.10;;;;;;5027680;28;20033;-62
2021/01/01 13:26:31;;;;;;;9.27;5.22;;;18.40;52.10;;;;;;5026310;28;20052;-62
2021/01/01 13:28:56;;;;;;;8.68;5.35;;;18.50;52.10;;;;;;5026152;28;20052;-61
2021/01/01 13:31:22;;;;;;;8.48;4.82;;;18.40;52.00;;;;;;5027615;28;20057;-63
2021/01/01 13:33:49;;;;;;;9.40;5.38;;;18.50;52.10;;;;;;5027221;28;20026;-63
2021/01/01 13:36:20;;;;;;;6.93;4.78;;;18.40;52.00;;;;;;5025610;28;20120;-63
2021/01/01 13:38:46;;;;;;;6.85;4.72;;;18.40;52.00;;;;;;5027194;28;20048;-64